Time;durP1;ratioP1;P1;durP2;ratioP2;P2;SDS_P1;SDS_P2;PMS_P1;PMS_P2;Temp;Humidity;BMP_temperature;BMP_pressure;BME280_temperature;BME280_humidity;BME280_pressure;Samples;Min_cycle;Max_cycle;Signal;HPM_P1;HPM_P2
2023/09/07 00:00:53;;;;;;;;;;;;;;;15.74;44.43;96045.78;5015686;28;19960;-78
2023/09/07 00:03:19;;;;;;;;;;;;;;;15.79;44.21;96037.09;4997990;28;20004;-78
2023/09/07 00:05:44;;;;;;;;;;;;;;;15.73;43.57;96039.59;5011209;28;20039;-78
2023/09/07 00:08:10;;;;;;;;;;;;;;;15.73;43.70;96036.91;5014213;28;19966;-78
2023/09/07 00:10:35;;;;;;;;;;;;;;;15.77;43.69;96036.50;5009839;28;19952;-78
2023/09/07 00:13:01;;;;;;;;;;;;;;;15.69;43.84;96034.81;5010147;28;20087;-78
2023/09/07 00:15:27;;;;;;;;;;;;;;;15.54;44.14;96034.94;5011853;28;20062;-78
2023/09/07 00:17:52;;;;;;;;;;;;;;;15.67;44.44;96032.31;5013909;28;20512;-78
2023/09/07 00:20:19;;;;;;;;;;;;;;;15.64;44.10;96032.75;4993896;28;19959;-78
2023/09/07 00:22:44;;;;;;;;;;;;;;;15.82;43.43;96028.66;5014819;28;20654;-78
2023/09/07 00:25:09;;;;;;;;;;;;;;;15.88;43.96;96028.69;5013704;28;19987;-79
2023/09/07 00:27:35;;;;;;;;;;;;;;;15.94;43.38;96026.22;5010823;28;20024;-78
2023/09/07 00:30:00;;;;;;;;;;;;;;;15.98;44.07;96022.13;5014049;28;20004;-77
2023/09/07 00:32:26;;;;;;;;;;;;;;;16.02;43.78;96022.53;5012271;28;19925;-77
2023/09/07 00:34:51;;;;;;;;;;;;;;;16.07;43.26;96022.72;5009687;28;19960;-77
2023/09/07 00:37:16;;;;;;;;;;;;;;;16.08;42.15;96030.59;5013242;28;19956;-77
2023/09/07 00:39:41;;;;;;;;;;;;;;;16.11;41.94;96027.50;5009734;28;20504;-77
2023/09/07 00:42:06;;;;;;;;;;;;;;;16.12;43.11;96028.34;5010695;28;19964;-77
2023/09/07 00:44:32;;;;;;;;;;;;;;;16.17;42.15;96028.53;5012649;28;20298;-77
2023/09/07 00:46:57;;;;;;;;;;;;;;;16.20;41.75;96025.44;5013796;28;19962;-76
2023/09/07 00:49:23;;;;;;;;;;;;;;;16.22;43.34;96023.38;5014932;28;19921;-77
2023/09/07 00:51:48;;;;;;;;;;;;;;;16.25;41.87;96024.84;5013576;28;19955;-76
2023/09/07 00:54:13;;;;;;;;;;;;;;;16.24;42.25;96021.31;5018973;28;19917;-78
2023/09/07 00:56:38;;;;;;;;;;;;;;;16.26;43.00;96013.88;5011024;28;20068;-76
2023/09/07 00:59:04;;;;;;;;;;;;;;;16.29;41.75;96019.88;5013643;28;20356;-76
2023/09/07 01:01:30;;;;;;;;;;;;;;;16.20;43.48;96011.19;4995499;28;20294;-77
2023/09/07 01:03:57;;;;;;;;;;;;;;;16.23;41.94;96011.63;5028378;22;20456;-74
2023/09/07 01:06:41;;;;;;;;;;;;;;;16.30;42.67;96008.09;4998674;28;19932;-73
2023/09/07 01:09:09;;;;;;;;;;;;;;;16.28;41.98;96002.13;5004789;28;19948;-73
2023/09/07 01:11:37;;;;;;;;;;;;;;;16.37;42.92;96001.75;5013583;28;20538;-73
2023/09/07 01:14:04;;;;;;;;;;;;;;;16.22;41.43;95996.50;5045244;28;19972;-73
2023/09/07 01:16:29;;;;;;;;;;;;;;;16.29;41.58;95993.03;5015019;28;19959;-73
2023/09/07 01:18:55;;;;;;;;;;;;;;;16.34;43.15;95995.91;5011679;28;20441;-73
2023/09/07 01:21:20;;;;;;;;;;;;;;;16.31;42.02;95999.03;5014689;28;20044;-73
2023/09/07 01:23:45;;;;;;;;;;;;;;;16.24;41.60;95991.78;5012987;28;20018;-73
2023/09/07 01:26:11;;;;;;;;;;;;;;;16.27;41.18;95987.84;4997220;28;19921;-73
2023/09/07 01:28:37;;;;;;;;;;;;;;;16.23;41.85;95987.44;4997098;28;19932;-73
2023/09/07 01:31:02;;;;;;;;;;;;;;;16.13;42.36;95984.31;5013151;28;19921;-73
2023/09/07 01:33:28;;;;;;;;;;;;;;;16.10;42.29;95984.72;5013227;28;20519;-73
2023/09/07 01:35:53;;;;;;;;;;;;;;;16.09;42.53;95988.47;5013863;28;19928;-74
2023/09/07 01:38:18;;;;;;;;;;;;;;;16.22;42.41;95993.03;5013165;28;20019;-73
2023/09/07 01:40:43;;;;;;;;;;;;;;;16.28;42.76;95986.00;5007685;28;19925;-73
2023/09/07 01:43:09;;;;;;;;;;;;;;;16.29;42.75;95987.66;5014847;28;19979;-73
2023/09/07 01:45:34;;;;;;;;;;;;;;;16.12;41.47;95988.06;5012793;28;19943;-73
2023/09/07 01:47:59;;;;;;;;;;;;;;;16.20;41.95;95990.53;5012892;28;19960;-74
2023/09/07 01:50:25;;;;;;;;;;;;;;;16.18;42.20;95983.72;5012583;28;19963;-73
2023/09/07 01:52:51;;;;;;;;;;;;;;;16.13;42.38;95984.31;5019230;28;20355;-73
2023/09/07 01:55:16;;;;;;;;;;;;;;;16.10;42.02;95982.03;4996624;28;19962;-74
2023/09/07 01:57:41;;;;;;;;;;;;;;;16.15;41.96;95984.97;4993410;28;19970;-73
2023/09/07 02:00:07;;;;;;;;;;;;;;;16.02;41.80;95991.13;5014160;28;19956;-74
2023/09/07 02:02:32;;;;;;;;;;;;;;;16.07;43.19;95987.81;5013670;28;20318;-73
2023/09/07 02:04:58;;;;;;;;;;;;;;;15.97;41.41;95986.38;5011451;28;19933;-73
2023/09/07 02:07:23;;;;;;;;;;;;;;;15.94;42.86;95981.41;4996541;28;19931;-73
2023/09/07 02:09:48;;;;;;;;;;;;;;;15.95;42.43;95980.34;5011365;28;20636;-74
2023/09/07 02:12:14;;;;;;;;;;;;;;;15.87;41.53;95981.38;5010639;28;20013;-73
2023/09/07 02:14:39;;;;;;;;;;;;;;;15.98;43.17;95974.59;5013018;28;19971;-73
2023/09/07 02:17:04;;;;;;;;;;;;;;;16.06;43.44;95980.81;5011233;28;20320;-74
2023/09/07 02:19:29;;;;;;;;;;;;;;;16.11;42.98;95981.00;5014516;28;19921;-73
2023/09/07 02:21:55;;;;;;;;;;;;;;;16.09;42.14;95975.88;5013809;28;20474;-72
2023/09/07 02:24:20;;;;;;;;;;;;;;;16.01;43.05;95981.41;5014076;28;19956;-73
2023/09/07 02:26:45;;;;;;;;;;;;;;;15.98;41.53;95979.97;5013684;28;20615;-73
2023/09/07 02:29:13;;;;;;;;;;;;;;;16.00;42.44;95977.91;5014587;28;19949;-73
2023/09/07 02:31:42;;;;;;;;;;;;;;;16.04;43.36;95980.19;5012898;28;19921;-73
2023/09/07 02:34:07;;;;;;;;;;;;;;;16.03;42.26;95976.66;5013920;28;20160;-73
2023/09/07 02:36:33;;;;;;;;;;;;;;;16.05;41.58;95979.16;5010818;28;20523;-73
2023/09/07 02:38:58;;;;;;;;;;;;;;;15.99;41.29;95976.25;5012463;28;19928;-73
2023/09/07 02:41:23;;;;;;;;;;;;;;;16.06;43.08;95978.13;5003235;28;20567;-73
2023/09/07 02:43:49;;;;;;;;;;;;;;;16.05;42.14;95981.84;5014257;28;19986;-73
2023/09/07 02:46:14;;;;;;;;;;;;;;;16.05;42.49;95981.84;5016848;28;20697;-73
2023/09/07 02:48:39;;;;;;;;;;;;;;;15.92;42.67;95979.94;5015582;28;20030;-73
2023/09/07 02:51:05;;;;;;;;;;;;;;;15.92;42.10;95978.09;5014989;28;19925;-73
2023/09/07 02:53:30;;;;;;;;;;;;;;;15.99;42.63;95970.06;5024398;28;19955;-73
2023/09/07 02:55:55;;;;;;;;;;;;;;;15.99;41.93;95967.38;5021882;28;20105;-73
2023/09/07 02:58:21;;;;;;;;;;;;;;;15.96;41.99;95965.94;5016361;28;20033;-74
2023/09/07 03:00:47;;;;;;;;;;;;;;;15.93;42.71;95968.19;5015239;28;20622;-73
2023/09/07 03:03:13;;;;;;;;;;;;;;;15.92;43.31;95969.22;5016129;28;19939;-73
2023/09/07 03:05:39;;;;;;;;;;;;;;;15.94;42.21;95977.91;5013660;28;19925;-73
2023/09/07 03:08:05;;;;;;;;;;;;;;;15.87;41.97;95967.97;5017595;28;19959;-73
2023/09/07 03:10:30;;;;;;;;;;;;;;;15.90;42.82;95965.91;5017154;28;19917;-73
2023/09/07 03:12:55;;;;;;;;;;;;;;;15.92;43.10;95974.59;5017297;28;20094;-73
2023/09/07 03:15:20;;;;;;;;;;;;;;;15.83;42.21;95971.25;5016140;28;20015;-73
2023/09/07 03:17:46;;;;;;;;;;;;;;;15.71;42.68;95974.53;5010921;28;20360;-73
2023/09/07 03:20:14;;;;;;;;;;;;;;;15.73;43.98;95968.97;5015935;28;19925;-73
2023/09/07 03:22:43;;;;;;;;;;;;;;;15.71;42.66;95968.34;5016966;28;19925;-73
2023/09/07 03:25:09;;;;;;;;;;;;;;;15.65;43.49;95971.81;5016068;28;19925;-73
2023/09/07 03:27:35;;;;;;;;;;;;;;;15.62;43.89;95970.38;4999430;28;19963;-73
2023/09/07 03:30:00;;;;;;;;;;;;;;;15.53;43.37;95966.19;5016044;28;19921;-72
2023/09/07 03:32:28;;;;;;;;;;;;;;;15.42;42.92;95972.94;5017290;28;20025;-73
2023/09/07 03:34:54;;;;;;;;;;;;;;;15.29;43.80;95973.72;5016730;28;20030;-75
2023/09/07 03:37:20;;;;;;;;;;;;;;;15.10;44.70;95968.09;5012944;28;19925;-73
2023/09/07 03:39:45;;;;;;;;;;;;;;;15.07;43.80;95968.47;5012137;28;19932;-73
2023/09/07 03:42:10;;;;;;;;;;;;;;;15.07;44.04;95968.47;5014743;28;20024;-73
2023/09/07 03:44:35;;;;;;;;;;;;;;;15.17;44.74;95962.75;5018020;28;20658;-74
2023/09/07 03:47:00;;;;;;;;;;;;;;;15.18;43.88;95973.28;5016704;28;20451;-74
2023/09/07 03:49:26;;;;;;;;;;;;;;;15.24;44.36;95969.78;4999124;28;19964;-72
2023/09/07 03:51:51;;;;;;;;;;;;;;;15.27;44.09;95967.75;5017465;28;19925;-75
2023/09/07 03:54:16;;;;;;;;;;;;;;;15.27;44.15;95973.09;5016727;28;19962;-73
2023/09/07 03:56:41;;;;;;;;;;;;;;;15.22;44.04;95974.53;5016655;28;20503;-73
2023/09/07 03:59:07;;;;;;;;;;;;;;;15.19;44.06;95972.25;5017874;28;20209;-73
2023/09/07 04:01:32;;;;;;;;;;;;;;;15.06;43.18;95970.31;5015496;28;20008;-72
2023/09/07 04:03:58;;;;;;;;;;;;;;;14.91;44.44;95967.78;5015360;28;20024;-74
2023/09/07 04:06:24;;;;;;;;;;;;;;;14.86;44.90;95972.91;5013117;28;19925;-73
2023/09/07 04:08:49;;;;;;;;;;;;;;;14.76;44.60;95972.41;5017431;28;20809;-73
2023/09/07 04:11:14;;;;;;;;;;;;;;;14.68;45.57;95971.50;5012402;28;19925;-74
2023/09/07 04:13:39;;;;;;;;;;;;;;;14.62;45.90;95972.28;5017240;28;20471;-74
2023/09/07 04:16:04;;;;;;;;;;;;;;;14.44;44.71;95967.41;5016380;28;19979;-73
2023/09/07 04:18:30;;;;;;;;;;;;;;;14.12;45.66;95972.28;5014874;28;19958;-73
2023/09/07 04:21:04;;;;;;;;;;;;;;;13.94;46.98;95971.72;5015015;28;19925;-73
2023/09/07 04:23:29;;;;;;;;;;;;;;;13.95;47.05;95967.22;5016136;28;20062;-72
2023/09/07 04:26:03;;;;;;;;;;;;;;;13.83;47.23;95962.31;5014737;28;19958;-74
2023/09/07 04:28:28;;;;;;;;;;;;;;;13.65;46.87;95968.13;5015782;28;19956;-72
2023/09/07 04:30:53;;;;;;;;;;;;;;;13.63;48.30;95966.66;5017046;28;20422;-75
2023/09/07 04:33:18;;;;;;;;;;;;;;;13.77;47.71;95972.97;5016851;28;20393;-72
2023/09/07 04:35:44;;;;;;;;;;;;;;;13.85;46.92;95972.00;5017272;28;19927;-72
2023/09/07 04:38:09;;;;;;;;;;;;;;;13.83;47.21;95973.03;5015199;28;19974;-72
2023/09/07 04:40:34;;;;;;;;;;;;;;;13.89;47.45;95973.31;5016108;28;20274;-73
2023/09/07 04:42:59;;;;;;;;;;;;;;;13.88;47.03;95975.19;4996112;28;20700;-74
2023/09/07 04:45:25;;;;;;;;;;;;;;;13.87;46.76;95983.38;5016032;28;20273;-73
2023/09/07 04:47:50;;;;;;;;;;;;;;;13.72;46.23;95978.03;5013502;28;19975;-74
2023/09/07 04:50:16;;;;;;;;;;;;;;;13.52;47.20;95987.50;5015250;28;19983;-74
2023/09/07 04:52:41;;;;;;;;;;;;;;;13.47;47.79;95981.06;5011689;28;20043;-74
2023/09/07 04:55:06;;;;;;;;;;;;;;;13.43;47.19;95976.09;5016317;28;19933;-73
2023/09/07 04:57:32;;;;;;;;;;;;;;;13.40;47.34;95976.44;5010608;28;20040;-74
2023/09/07 04:59:57;;;;;;;;;;;;;;;13.37;47.46;95982.19;5015757;28;19946;-73
2023/09/07 05:02:22;;;;;;;;;;;;;;;13.26;48.19;95980.00;5014813;28;19963;-74
2023/09/07 05:04:47;;;;;;;;;;;;;;;13.33;48.45;95974.72;5012621;28;19969;-73
2023/09/07 05:07:13;;;;;;;;;;;;;;;13.46;48.91;95977.56;5013231;28;19941;-73
2023/09/07 05:09:38;;;;;;;;;;;;;;;13.50;48.54;95980.69;5013449;28;20677;-73
2023/09/07 05:12:03;;;;;;;;;;;;;;;13.73;48.34;95977.84;5013679;28;20006;-74
2023/09/07 05:14:29;;;;;;;;;;;;;;;13.80;47.24;95972.56;5017230;28;19942;-73
2023/09/07 05:16:56;;;;;;;;;;;;;;;13.76;47.78;95971.28;5013312;28;19932;-74
2023/09/07 05:19:21;;;;;;;;;;;;;;;13.71;48.05;95974.56;5016425;28;19941;-74
2023/09/07 05:21:46;;;;;;;;;;;;;;;13.76;48.10;95984.66;4991210;28;20375;-74
2023/09/07 05:24:12;;;;;;;;;;;;;;;13.80;48.00;95980.59;5013957;28;19961;-73
2023/09/07 05:26:38;;;;;;;;;;;;;;;13.87;48.04;95989.53;5010633;28;20039;-73
2023/09/07 05:29:03;;;;;;;;;;;;;;;14.02;48.09;95980.66;5015351;28;19951;-74
2023/09/07 05:31:28;;;;;;;;;;;;;;;14.23;47.80;95978.97;5010327;28;19975;-73
2023/09/07 05:33:53;;;;;;;;;;;;;;;14.38;47.33;95982.41;5014363;28;19961;-74
2023/09/07 05:36:19;;;;;;;;;;;;;;;14.57;47.19;95985.44;5013556;28;20014;-73
2023/09/07 05:38:44;;;;;;;;;;;;;;;14.65;47.05;95979.94;5014258;28;20064;-73
2023/09/07 05:41:09;;;;;;;;;;;;;;;14.62;46.78;95983.00;5009728;28;19928;-74
2023/09/07 05:43:34;;;;;;;;;;;;;;;14.78;46.62;95983.75;5012580;28;20059;-73
2023/09/07 05:46:00;;;;;;;;;;;;;;;14.96;46.07;95984.09;5013710;28;20424;-73
2023/09/07 05:48:25;;;;;;;;;;;;;;;15.13;45.83;95983.75;5011712;28;19984;-74
2023/09/07 05:50:50;;;;;;;;;;;;;;;15.35;45.35;95989.03;5015604;28;20602;-73
2023/09/07 05:53:16;;;;;;;;;;;;;;;15.43;45.25;95985.38;5009481;28;20106;-73
2023/09/07 05:55:41;;;;;;;;;;;;;;;15.63;45.03;95988.13;4997361;28;19932;-73
2023/09/07 05:58:07;;;;;;;;;;;;;;;15.89;44.41;95981.19;5013290;28;20032;-74
2023/09/07 06:00:32;;;;;;;;;;;;;;;16.05;44.06;95993.38;5010131;28;19932;-73
2023/09/07 06:02:57;;;;;;;;;;;;;;;16.13;43.99;95992.38;5009378;28;19933;-74
2023/09/07 06:05:22;;;;;;;;;;;;;;;16.18;44.11;95995.28;5011706;28;19932;-73
2023/09/07 06:07:48;;;;;;;;;;;;;;;16.27;43.76;96003.97;5013565;28;19921;-73
2023/09/07 06:10:13;;;;;;;;;;;;;;;16.52;43.27;96006.91;5013269;28;19932;-72
2023/09/07 06:12:38;;;;;;;;;;;;;;;16.74;42.52;96008.56;5011887;28;19932;-72
2023/09/07 06:15:04;;;;;;;;;;;;;;;17.00;42.18;96006.88;5014991;28;20530;-65
2023/09/07 06:17:29;;;;;;;;;;;;;;;17.25;41.67;96004.38;5007462;28;19956;-65
2023/09/07 06:19:54;;;;;;;;;;;;;;;17.36;41.26;96012.81;5009163;28;19921;-66
2023/09/07 06:22:19;;;;;;;;;;;;;;;17.51;41.27;96007.97;5010867;28;19929;-65
2023/09/07 06:24:45;;;;;;;;;;;;;;;17.69;41.21;96013.72;5010555;28;19925;-66
2023/09/07 06:27:10;;;;;;;;;;;;;;;17.89;40.72;96013.66;5013715;28;19925;-65
2023/09/07 06:29:35;;;;;;;;;;;;;;;18.08;40.47;96013.75;5007085;28;19991;-66
2023/09/07 06:32:00;;;;;;;;;;;;;;;17.96;40.66;96013.63;5017880;28;19939;-65
2023/09/07 06:34:26;;;;;;;;;;;;;;;18.10;39.97;96004.41;5018335;28;19917;-66
2023/09/07 06:36:51;;;;;;;;;;;;;;;18.08;40.03;96006.50;5016963;28;20017;-65
2023/09/07 06:39:16;;;;;;;;;;;;;;;18.22;39.65;96007.22;5013958;28;19933;-66
2023/09/07 06:41:41;;;;;;;;;;;;;;;18.25;40.36;96006.81;5016390;28;20773;-65
2023/09/07 06:44:07;;;;;;;;;;;;;;;18.44;39.35;96004.19;5014942;28;19969;-65
2023/09/07 06:46:32;;;;;;;;;;;;;;;18.43;39.40;96010.63;5015572;28;19924;-65
2023/09/07 06:48:57;;;;;;;;;;;;;;;18.42;39.47;96014.34;5015663;28;19929;-65
2023/09/07 06:51:22;;;;;;;;;;;;;;;18.47;39.28;96014.53;5016739;28;19929;-65
2023/09/07 06:53:50;;;;;;;;;;;;;;;18.81;39.39;96015.13;5016483;28;19929;-65
2023/09/07 06:56:15;;;;;;;;;;;;;;;19.07;38.01;96015.88;5017273;28;19979;-65
2023/09/07 06:58:40;;;;;;;;;;;;;;;19.01;37.86;96014.09;5012442;28;19932;-65
2023/09/07 07:01:06;;;;;;;;;;;;;;;19.14;37.93;96015.81;5016785;28;19925;-65
2023/09/07 07:03:31;;;;;;;;;;;;;;;19.11;38.22;96023.53;5011703;28;20015;-65
2023/09/07 07:05:56;;;;;;;;;;;;;;;19.31;37.74;96018.78;5015005;28;21268;-65
2023/09/07 07:08:22;;;;;;;;;;;;;;;19.49;37.49;96019.84;5010975;28;19931;-66
2023/09/07 07:10:47;;;;;;;;;;;;;;;19.45;37.59;96034.84;5017262;28;19968;-65
2023/09/07 07:13:12;;;;;;;;;;;;;;;19.67;37.48;96032.50;5014692;28;20019;-66
2023/09/07 07:15:37;;;;;;;;;;;;;;;19.60;37.15;96031.75;5013434;28;19987;-66
2023/09/07 07:18:08;;;;;;;;;;;;;;;19.69;37.47;96041.19;5013589;28;20345;-66
2023/09/07 07:20:40;;;;;;;;;;;;;;;19.96;36.87;96042.78;5015916;28;19925;-65
2023/09/07 07:23:08;;;;;;;;;;;;;;;20.08;37.19;96049.06;5011790;28;19925;-65
2023/09/07 07:25:33;;;;;;;;;;;;;;;20.30;36.46;96048.56;5016761;28;19924;-65
2023/09/07 07:28:05;;;;;;;;;;;;;;;20.44;36.08;96048.34;5011821;28;19921;-66
2023/09/07 07:30:37;;;;;;;;;;;;;;;20.33;36.28;96050.78;5017359;28;19939;-65
2023/09/07 07:33:03;;;;;;;;;;;;;;;20.38;35.92;96047.38;5011347;28;19932;-67
2023/09/07 07:35:29;;;;;;;;;;;;;;;20.80;35.25;96043.03;5016387;28;19924;-67
2023/09/07 07:37:54;;;;;;;;;;;;;;;20.83;35.48;96051.50;5010434;28;20055;-68
2023/09/07 07:40:20;;;;;;;;;;;;;;;20.99;35.25;96055.41;5014909;28;20627;-67
2023/09/07 07:42:46;;;;;;;;;;;;;;;20.90;35.46;96050.56;5014049;28;20475;-65
2023/09/07 07:45:12;;;;;;;;;;;;;;;21.29;34.90;96050.97;5016860;28;19947;-65
2023/09/07 07:47:37;;;;;;;;;;;;;;;21.22;35.15;96055.63;5013955;28;19921;-65
2023/09/07 07:50:03;;;;;;;;;;;;;;;21.07;35.10;96048.00;5017122;28;20490;-66
2023/09/07 07:52:29;;;;;;;;;;;;;;;21.10;36.31;96055.63;5015087;28;19929;-65
2023/09/07 07:54:54;;;;;;;;;;;;;;;21.59;34.75;96049.94;5017271;28;19928;-66
2023/09/07 07:57:19;;;;;;;;;;;;;;;21.80;34.69;96054.97;5013856;28;20534;-66
2023/09/07 07:59:45;;;;;;;;;;;;;;;21.61;34.03;96049.72;5015282;28;20078;-65
2023/09/07 08:02:10;;;;;;;;;;;;;;;21.42;34.43;96057.19;5015695;28;20044;-65
2023/09/07 08:04:35;;;;;;;;;;;;;;;21.81;34.10;96054.75;5013224;28;19976;-65
2023/09/07 08:07:03;;;;;;;;;;;;;;;21.66;34.15;96057.13;5016461;28;19965;-66
2023/09/07 08:09:31;;;;;;;;;;;;;;;21.60;34.33;96057.03;5008962;28;20306;-66
2023/09/07 08:11:57;;;;;;;;;;;;;;;21.85;33.85;96058.63;5014407;28;19925;-66
2023/09/07 08:14:22;;;;;;;;;;;;;;;21.96;33.81;96051.53;5012768;28;20352;-66
2023/09/07 08:16:48;;;;;;;;;;;;;;;21.98;33.81;96054.00;5013814;28;19979;-66
2023/09/07 08:19:14;;;;;;;;;;;;;;;21.97;34.18;96061.34;5014427;28;19925;-65
2023/09/07 08:21:41;;;;;;;;;;;;;;;22.25;33.52;96062.41;5009788;28;19925;-66
2023/09/07 08:24:07;;;;;;;;;;;;;;;22.07;33.64;96060.72;5007559;28;19936;-66
2023/09/07 08:26:32;;;;;;;;;;;;;;;22.16;33.25;96055.69;5007456;28;20306;-66
2023/09/07 08:28:57;;;;;;;;;;;;;;;22.50;32.46;96054.97;5006325;28;19935;-66
2023/09/07 08:31:22;;;;;;;;;;;;;;;22.75;32.82;96051.06;5006568;28;19971;-66
2023/09/07 08:33:51;;;;;;;;;;;;;;;22.72;32.72;96054.25;5006999;28;19971;-66
2023/09/07 08:36:17;;;;;;;;;;;;;;;22.77;32.63;96052.44;5011360;28;20381;-75
2023/09/07 08:38:42;;;;;;;;;;;;;;;22.78;32.24;96054.09;5024142;28;19966;-76
2023/09/07 08:41:07;;;;;;;;;;;;;;;23.02;32.30;96053.13;5019537;28;19929;-74
2023/09/07 08:43:34;;;;;;;;;;;;;;;23.34;32.10;96055.22;5022614;28;19971;-74
2023/09/07 08:46:04;;;;;;;;;;;;;;;23.29;31.85;96052.44;5007718;28;20184;-74
2023/09/07 08:48:29;;;;;;;;;;;;;;;23.20;31.87;96053.94;5020125;28;19936;-74
2023/09/07 08:50:54;;;;;;;;;;;;;;;23.06;32.17;96056.97;5024880;28;19916;-74
2023/09/07 08:53:20;;;;;;;;;;;;;;;23.08;32.13;96056.72;5020058;28;19921;-74
2023/09/07 08:55:45;;;;;;;;;;;;;;;23.56;32.33;96052.53;5007511;28;19917;-74
2023/09/07 08:58:10;;;;;;;;;;;;;;;23.76;31.67;96053.09;5021917;28;19932;-74
2023/09/07 09:00:36;;;;;;;;;;;;;;;23.70;31.83;96054.88;5018710;28;20369;-72
2023/09/07 09:03:01;;;;;;;;;;;;;;;23.97;31.14;96059.59;5009026;28;20808;-71
2023/09/07 09:05:27;;;;;;;;;;;;;;;24.10;30.99;96049.41;5013573;28;19991;-71
2023/09/07 09:08:05;;;;;;;;;;;;;;;24.30;31.49;96054.25;5013065;28;20598;-72
2023/09/07 09:10:30;;;;;;;;;;;;;;;24.67;30.73;96050.78;5008126;28;20008;-72
2023/09/07 09:12:56;;;;;;;;;;;;;;;24.65;30.86;96060.28;5011559;28;19922;-71
2023/09/07 09:15:21;;;;;;;;;;;;;;;24.84;30.39;96049.81;5013476;28;19925;-71
2023/09/07 09:17:47;;;;;;;;;;;;;;;24.64;30.17;96051.28;5011994;28;19943;-72
2023/09/07 09:20:24;;;;;;;;;;;;;;;24.65;30.37;96058.41;5014171;28;19984;-71
2023/09/07 09:22:50;;;;;;;;;;;;;;;24.73;30.51;96054.38;5012141;28;19931;-71
2023/09/07 09:25:16;;;;;;;;;;;;;;;24.96;30.14;96055.97;5008811;28;20340;-72
2023/09/07 09:27:41;;;;;;;;;;;;;;;25.25;30.08;96051.25;5013560;28;20236;-70
2023/09/07 09:30:07;;;;;;;;;;;;;;;25.29;28.81;96046.91;5014972;28;19921;-71
2023/09/07 09:32:32;;;;;;;;;;;;;;;25.54;29.46;96051.69;5014275;28;19921;-72
2023/09/07 09:34:57;;;;;;;;;;;;;;;25.39;29.23;96046.13;5010639;28;19932;-72
2023/09/07 09:37:23;;;;;;;;;;;;;;;25.81;28.49;96052.63;5010551;28;19925;-72
2023/09/07 09:39:51;;;;;;;;;;;;;;;25.62;29.05;96044.13;5009332;28;20043;-71
2023/09/07 09:42:16;;;;;;;;;;;;;;;25.68;29.46;96043.03;5005322;28;20682;-70
2023/09/07 09:44:41;;;;;;;;;;;;;;;25.85;28.16;96043.66;5007432;28;19925;-70
2023/09/07 09:47:06;;;;;;;;;;;;;;;25.91;28.37;96038.22;5000348;28;20679;-71
2023/09/07 09:49:32;;;;;;;;;;;;;;;25.66;28.73;96037.03;4991698;28;19925;-71
2023/09/07 09:51:58;;;;;;;;;;;;;;;25.71;29.27;96037.06;5011895;28;19921;-71
2023/09/07 09:54:23;;;;;;;;;;;;;;;26.03;28.41;96032.56;5009688;28;20019;-71
2023/09/07 09:56:49;;;;;;;;;;;;;;;26.10;28.32;96033.94;5013454;28;20866;-71
2023/09/07 09:59:14;;;;;;;;;;;;;;;26.00;27.19;96036.59;5012457;28;19926;-71
2023/09/07 10:01:41;;;;;;;;;;;;;;;26.35;27.77;96034.25;5013599;28;20607;-71
2023/09/07 10:04:06;;;;;;;;;;;;;;;26.23;27.66;96031.78;5010808;28;19929;-71
2023/09/07 10:06:32;;;;;;;;;;;;;;;26.22;27.49;96036.44;5011330;28;19924;-71
2023/09/07 10:08:58;;;;;;;;;;;;;;;26.32;27.10;96029.34;5012464;28;19925;-72
2023/09/07 10:11:31;;;;;;;;;;;;;;;26.16;27.58;96028.47;5008521;28;20008;-71
2023/09/07 10:13:56;;;;;;;;;;;;;;;26.65;27.03;96019.03;5013437;28;19925;-72
2023/09/07 10:16:22;;;;;;;;;;;;;;;26.72;26.86;96008.63;5013658;28;19932;-71
2023/09/07 10:18:47;;;;;;;;;;;;;;;26.63;27.15;96015.75;5008549;28;20378;-71
2023/09/07 10:21:12;;;;;;;;;;;;;;;26.74;26.58;96013.81;5010546;28;19931;-72
2023/09/07 10:23:38;;;;;;;;;;;;;;;26.99;26.19;96010.25;5014061;28;19929;-74
2023/09/07 10:26:06;;;;;;;;;;;;;;;26.84;26.05;96010.28;5014006;28;20024;-71
2023/09/07 10:28:32;;;;;;;;;;;;;;;26.53;26.90;96004.78;5007597;28;19925;-71
2023/09/07 10:30:58;;;;;;;;;;;;;;;26.37;26.79;95999.31;5006657;28;20073;-71
2023/09/07 10:33:23;;;;;;;;;;;;;;;26.88;26.01;96008.63;5007268;28;19935;-71
2023/09/07 10:35:48;;;;;;;;;;;;;;;26.86;26.55;96000.69;5006522;28;20009;-71
2023/09/07 10:38:14;;;;;;;;;;;;;;;26.79;25.82;96000.19;5012981;28;19956;-72
2023/09/07 10:40:39;;;;;;;;;;;;;;;26.90;26.39;96001.00;5008339;28;19929;-71
2023/09/07 10:43:04;;;;;;;;;;;;;;;26.81;25.55;95997.19;5012524;28;19933;-71
2023/09/07 10:45:30;;;;;;;;;;;;;;;26.99;26.75;96002.06;5011105;28;19968;-71
2023/09/07 10:47:55;;;;;;;;;;;;;;;27.32;26.16;96003.69;5010204;28;19925;-72
2023/09/07 10:50:20;;;;;;;;;;;;;;;27.38;26.46;96000.63;5012953;28;20012;-70
2023/09/07 10:52:45;;;;;;;;;;;;;;;27.38;25.73;96000.63;5013363;28;20020;-71
2023/09/07 10:55:11;;;;;;;;;;;;;;;27.86;25.98;95993.06;5006938;28;20032;-72
2023/09/07 10:57:43;;;;;;;;;;;;;;;27.86;25.10;95996.63;5007490;28;19925;-71
2023/09/07 11:00:10;;;;;;;;;;;;;;;27.93;25.39;95990.03;5004793;28;19926;-72
2023/09/07 11:02:36;;;;;;;;;;;;;;;28.20;25.98;95995.09;5005229;28;19976;-74
2023/09/07 11:05:01;;;;;;;;;;;;;;;28.06;25.16;95985.84;5004680;28;19929;-72
2023/09/07 11:07:27;;;;;;;;;;;;;;;28.01;26.07;95990.25;5006428;28;20530;-72
2023/09/07 11:09:53;;;;;;;;;;;;;;;27.50;24.44;95985.84;5006652;28;19933;-72
2023/09/07 11:12:21;;;;;;;;;;;;;;;27.85;24.25;95991.44;5006788;28;20412;-72
2023/09/07 11:14:47;;;;;;;;;;;;;;;27.71;23.58;95983.88;5012708;28;19924;-72
2023/09/07 11:17:12;;;;;;;;;;;;;;;28.16;23.56;95980.34;5012212;28;20639;-72
2023/09/07 11:19:37;;;;;;;;;;;;;;;27.62;22.47;95977.31;5008699;28;19940;-72
2023/09/07 11:22:04;;;;;;;;;;;;;;;28.11;23.02;95977.63;5013447;28;19936;-72
2023/09/07 11:24:29;;;;;;;;;;;;;;;28.17;23.58;95981.19;5005926;28;19929;-72
2023/09/07 11:26:54;;;;;;;;;;;;;;;28.11;22.03;95977.63;5009698;28;19928;-72
2023/09/07 11:29:19;;;;;;;;;;;;;;;28.12;19.89;95973.78;5008642;28;19948;-72
2023/09/07 11:31:45;;;;;;;;;;;;;;;28.40;20.54;95974.16;5012038;28;19924;-73
2023/09/07 11:34:11;;;;;;;;;;;;;;;28.22;22.00;95981.13;5013984;28;19928;-72
2023/09/07 11:36:36;;;;;;;;;;;;;;;28.07;21.73;95974.63;5011856;28;19925;-72
2023/09/07 11:39:08;;;;;;;;;;;;;;;28.53;22.28;95970.78;5010682;28;19999;-74
2023/09/07 11:41:33;;;;;;;;;;;;;;;28.69;20.75;95976.16;5005574;28;19925;-71
2023/09/07 11:43:58;;;;;;;;;;;;;;;28.60;21.05;95975.91;5011935;28;19940;-73
2023/09/07 11:46:24;;;;;;;;;;;;;;;28.54;22.64;95968.81;5015511;28;19932;-71
2023/09/07 11:48:49;;;;;;;;;;;;;;;28.71;22.72;95973.91;5010207;28;19976;-71
2023/09/07 11:51:14;;;;;;;;;;;;;;;29.09;22.98;95972.47;5013264;28;19995;-72
2023/09/07 11:53:39;;;;;;;;;;;;;;;29.05;21.09;95970.31;5015515;28;19925;-71
2023/09/07 11:56:05;;;;;;;;;;;;;;;28.76;20.62;95967.59;5014841;28;20491;-71
2023/09/07 11:58:30;;;;;;;;;;;;;;;29.35;21.43;95973.03;5017798;28;19925;-71
2023/09/07 12:00:55;;;;;;;;;;;;;;;29.62;20.77;95976.25;5011636;28;20651;-72
2023/09/07 12:03:21;;;;;;;;;;;;;;;29.64;20.44;95979.53;5013771;28;20046;-71
2023/09/07 12:05:46;;;;;;;;;;;;;;;29.33;20.59;95967.00;5012136;28;19964;-71
2023/09/07 12:08:11;;;;;;;;;;;;;;;29.84;20.74;95972.16;5013412;28;20450;-71
2023/09/07 12:10:37;;;;;;;;;;;;;;;29.84;21.38;95972.97;5011360;28;20028;-71
2023/09/07 12:13:02;;;;;;;;;;;;;;;30.06;21.16;95961.44;5010643;28;19929;-72
2023/09/07 12:15:27;;;;;;;;;;;;;;;30.28;21.39;95961.97;5009194;28;20301;-71
2023/09/07 12:17:54;;;;;;;;;;;;;;;30.43;21.51;95963.63;5010678;28;20389;-72
2023/09/07 12:20:19;;;;;;;;;;;;;;;30.26;21.82;95964.16;5007033;28;20385;-72
2023/09/07 12:22:44;;;;;;;;;;;;;;;30.24;21.39;95964.47;5006644;28;19929;-71
2023/09/07 12:25:12;;;;;;;;;;;;;;;30.61;21.58;95955.63;5008833;28;20003;-72
2023/09/07 12:27:38;;;;;;;;;;;;;;;30.91;21.09;95951.56;5011693;28;20050;-72
2023/09/07 12:30:07;;;;;;;;;;;;;;;30.79;21.12;95956.75;5004670;28;19924;-72
2023/09/07 12:32:32;;;;;;;;;;;;;;;30.77;21.80;95956.22;5006374;28;19925;-72
2023/09/07 12:34:57;;;;;;;;;;;;;;;31.20;21.25;95958.72;5006068;28;20424;-72
2023/09/07 12:37:24;;;;;;;;;;;;;;;31.05;20.87;95946.09;5006659;28;19925;-72
2023/09/07 12:39:50;;;;;;;;;;;;;;;31.17;20.76;95948.34;5008519;28;19929;-72